sensor_id;sensor_type;location;lat;lon;timestamp;temperature;humidity
8475;DHT22;4274;52.012;8.448;2022-12-29T00:00:05;9.40;99.90
8475;DHT22;4274;52.012;8.448;2022-12-29T00:02:31;9.40;99.90
8475;DHT22;4274;52.012;8.448;2022-12-29T00:04:57;9.40;99.90
8475;DHT22;4274;52.012;8.448;2022-12-29T00:07:22;9.40;99.90
8475;DHT22;4274;52.012;8.448;2022-12-29T00:09:48;9.40;99.90
8475;DHT22;4274;52.012;8.448;2022-12-29T00:12:13;9.50;99.90
8475;DHT22;4274;52.012;8.448;2022-12-29T00:14:39;9.50;99.90
8475;DHT22;4274;52.012;8.448;2022-12-29T00:17:23;9.50;99.90
8475;DHT22;4274;52.012;8.448;2022-12-29T00:19:49;9.40;99.90
8475;DHT22;4274;52.012;8.448;2022-12-29T00:22:33;9.40;99.90
8475;DHT22;4274;52.012;8.448;2022-12-29T00:25:17;9.50;99.90
8475;DHT22;4274;52.012;8.448;2022-12-29T00:28:01;9.50;99.90
8475;DHT22;4274;52.012;8.448;2022-12-29T00:30:45;9.50;99.90
8475;DHT22;4274;52.012;8.448;2022-12-29T00:33:30;9.50;99.90
8475;DHT22;4274;52.012;8.448;2022-12-29T00:36:38;9.50;99.90
8475;DHT22;4274;52.012;8.448;2022-12-29T00:39:14;9.60;99.90
8475;DHT22;4274;52.012;8.448;2022-12-29T00:42:06;9.60;99.90
8475;DHT22;4274;52.012;8.448;2022-12-29T00:45:04;9.50;99.90
8475;DHT22;4274;52.012;8.448;2022-12-29T00:47:30;9.50;99.90
8475;DHT22;4274;52.012;8.448;2022-12-29T00:49:56;9.60;99.90
8475;DHT22;4274;52.012;8.448;2022-12-29T00:52:21;9.60;99.90
8475;DHT22;4274;52.012;8.448;2022-12-29T00:54:47;9.60;99.90
8475;DHT22;4274;52.012;8.448;2022-12-29T00:57:12;9.60;99.90
8475;DHT22;4274;52.012;8.448;2022-12-29T00:59:39;9.60;99.90
8475;DHT22;4274;52.012;8.448;2022-12-29T01:02:06;9.60;99.90
8475;DHT22;4274;52.012;8.448;2022-12-29T01:04:32;9.50;99.90
8475;DHT22;4274;52.012;8.448;2022-12-29T01:06:57;9.50;99.90
8475;DHT22;4274;52.012;8.448;2022-12-29T01:09:23;9.50;99.90
8475;DHT22;4274;52.012;8.448;2022-12-29T01:12:08;9.50;99.90
8475;DHT22;4274;52.012;8.448;2022-12-29T01:14:34;9.50;99.90
8475;DHT22;4274;52.012;8.448;2022-12-29T01:17:00;9.50;99.90
8475;DHT22;4274;52.012;8.448;2022-12-29T01:19:26;9.50;99.90
8475;DHT22;4274;52.012;8.448;2022-12-29T01:21:51;9.50;99.90
8475;DHT22;4274;52.012;8.448;2022-12-29T01:24:18;9.50;99.90
8475;DHT22;4274;52.012;8.448;2022-12-29T01:26:44;9.50;99.90
8475;DHT22;4274;52.012;8.448;2022-12-29T01:29:10;9.60;99.90
8475;DHT22;4274;52.012;8.448;2022-12-29T01:31:35;9.60;99.90
8475;DHT22;4274;52.012;8.448;2022-12-29T01:34:01;9.60;99.90
8475;DHT22;4274;52.012;8.448;2022-12-29T01:36:27;9.60;99.90
8475;DHT22;4274;52.012;8.448;2022-12-29T01:38:52;9.60;99.90
8475;DHT22;4274;52.012;8.448;2022-12-29T01:41:18;9.60;99.90
8475;DHT22;4274;52.012;8.448;2022-12-29T01:48:52;9.70;99.90
8475;DHT22;4274;52.012;8.448;2022-12-29T01:51:21;9.70;99.90
8475;DHT22;4274;52.012;8.448;2022-12-29T01:53:48;9.70;99.90
8475;DHT22;4274;52.012;8.448;2022-12-29T01:56:17;9.70;99.90
8475;DHT22;4274;52.012;8.448;2022-12-29T01:58:46;9.70;99.90
8475;DHT22;4274;52.012;8.448;2022-12-29T02:01:13;9.70;99.90
8475;DHT22;4274;52.012;8.448;2022-12-29T02:03:40;9.80;99.90
8475;DHT22;4274;52.012;8.448;2022-12-29T02:06:17;9.80;99.90
8475;DHT22;4274;52.012;8.448;2022-12-29T02:08:47;9.80;99.90
8475;DHT22;4274;52.012;8.448;2022-12-29T02:11:14;9.70;99.90
8475;DHT22;4274;52.012;8.448;2022-12-29T02:13:41;9.60;99.90
8475;DHT22;4274;52.012;8.448;2022-12-29T02:16:27;9.50;99.90
8475;DHT22;4274;52.012;8.448;2022-12-29T02:25:00;9.30;99.90
8475;DHT22;4274;52.012;8.448;2022-12-29T02:27:38;9.30;99.90
8475;DHT22;4274;52.012;8.448;2022-12-29T02:35:43;9.30;99.90
8475;DHT22;4274;52.012;8.448;2022-12-29T02:43:26;9.40;99.90
8475;DHT22;4274;52.012;8.448;2022-12-29T02:46:12;9.40;99.90
8475;DHT22;4274;52.012;8.448;2022-12-29T02:49:01;9.40;99.90
8475;DHT22;4274;52.012;8.448;2022-12-29T02:54:10;9.50;99.90
8475;DHT22;4274;52.012;8.448;2022-12-29T02:56:54;9.50;99.90
8475;DHT22;4274;52.012;8.448;2022-12-29T02:59:20;9.50;99.90
8475;DHT22;4274;52.012;8.448;2022-12-29T03:02:05;9.60;99.90
8475;DHT22;4274;52.012;8.448;2022-12-29T03:05:03;9.60;99.90
8475;DHT22;4274;52.012;8.448;2022-12-29T03:12:54;9.70;99.90
8475;DHT22;4274;52.012;8.448;2022-12-29T03:15:46;9.80;99.90
8475;DHT22;4274;52.012;8.448;2022-12-29T03:24:12;9.90;99.90
8475;DHT22;4274;52.012;8.448;2022-12-29T03:26:39;10.00;99.90
8475;DHT22;4274;52.012;8.448;2022-12-29T03:29:06;10.00;99.90
8475;DHT22;4274;52.012;8.448;2022-12-29T03:31:34;10.00;99.90
8475;DHT22;4274;52.012;8.448;2022-12-29T03:34:01;10.10;99.90
8475;DHT22;4274;52.012;8.448;2022-12-29T03:36:32;10.10;99.90
8475;DHT22;4274;52.012;8.448;2022-12-29T03:39:09;10.10;99.90
8475;DHT22;4274;52.012;8.448;2022-12-29T03:41:38;10.20;99.90
8475;DHT22;4274;52.012;8.448;2022-12-29T03:44:08;10.20;99.90
8475;DHT22;4274;52.012;8.448;2022-12-29T03:46:34;10.20;99.90
8475;DHT22;4274;52.012;8.448;2022-12-29T03:49:00;10.30;99.90
8475;DHT22;4274;52.012;8.448;2022-12-29T03:51:26;10.30;99.90
8475;DHT22;4274;52.012;8.448;2022-12-29T03:53:51;10.30;99.90
8475;DHT22;4274;52.012;8.448;2022-12-29T03:56:17;10.30;99.90
8475;DHT22;4274;52.012;8.448;2022-12-29T03:58:42;10.30;99.90
8475;DHT22;4274;52.012;8.448;2022-12-29T04:01:08;10.30;99.90
8475;DHT22;4274;52.012;8.448;2022-12-29T04:03:33;10.30;99.90
8475;DHT22;4274;52.012;8.448;2022-12-29T04:05:59;10.30;99.90
8475;DHT22;4274;52.012;8.448;2022-12-29T04:08:25;10.40;99.90
8475;DHT22;4274;52.012;8.448;2022-12-29T04:10:50;10.40;99.90
8475;DHT22;4274;52.012;8.448;2022-12-29T04:13:16;10.40;99.90
8475;DHT22;4274;52.012;8.448;2022-12-29T04:15:45;10.50;99.90
8475;DHT22;4274;52.012;8.448;2022-12-29T04:18:11;10.40;99.90
8475;DHT22;4274;52.012;8.448;2022-12-29T04:20:37;10.50;99.90
8475;DHT22;4274;52.012;8.448;2022-12-29T04:23:21;10.50;99.90
8475;DHT22;4274;52.012;8.448;2022-12-29T04:25:47;10.50;99.90
8475;DHT22;4274;52.012;8.448;2022-12-29T04:28:14;10.50;99.90
8475;DHT22;4274;52.012;8.448;2022-12-29T04:30:40;10.50;99.90
8475;DHT22;4274;52.012;8.448;2022-12-29T04:33:05;10.50;99.90
8475;DHT22;4274;52.012;8.448;2022-12-29T04:35:31;10.50;99.90
8475;DHT22;4274;52.012;8.448;2022-12-29T04:37:56;10.50;99.90
8475;DHT22;4274;52.012;8.448;2022-12-29T04:40:22;10.50;99.90
8475;DHT22;4274;52.012;8.448;2022-12-29T04:42:49;10.50;99.90
8475;DHT22;4274;52.012;8.448;2022-12-29T04:45:14;10.50;99.90
8475;DHT22;4274;52.012;8.448;2022-12-29T04:47:40;10.40;99.90
8475;DHT22;4274;52.012;8.448;2022-12-29T04:50:06;10.40;99.90
8475;DHT22;4274;52.012;8.448;2022-12-29T04:52:31;10.40;99.90
8475;DHT22;4274;52.012;8.448;2022-12-29T04:54:57;10.30;99.90
8475;DHT22;4274;52.012;8.448;2022-12-29T04:57:22;10.40;99.90
8475;DHT22;4274;52.012;8.448;2022-12-29T04:59:48;10.40;99.90
8475;DHT22;4274;52.012;8.448;2022-12-29T05:02:13;10.40;99.90
8475;DHT22;4274;52.012;8.448;2022-12-29T05:04:39;10.30;99.90
8475;DHT22;4274;52.012;8.448;2022-12-29T05:07:05;10.30;99.90
8475;DHT22;4274;52.012;8.448;2022-12-29T05:09:30;10.20;99.90
8475;DHT22;4274;52.012;8.448;2022-12-29T05:11:56;10.10;99.90
8475;DHT22;4274;52.012;8.448;2022-12-29T05:14:21;10.10;99.90
8475;DHT22;4274;52.012;8.448;2022-12-29T05:16:47;10.20;99.90
8475;DHT22;4274;52.012;8.448;2022-12-29T05:19:13;10.20;99.90
8475;DHT22;4274;52.012;8.448;2022-12-29T05:21:38;10.20;99.90
8475;DHT22;4274;52.012;8.448;2022-12-29T05:24:04;10.20;99.90
8475;DHT22;4274;52.012;8.448;2022-12-29T05:26:30;10.20;99.90
8475;DHT22;4274;52.012;8.448;2022-12-29T05:28:55;10.20;99.90
8475;DHT22;4274;52.012;8.448;2022-12-29T05:31:21;10.20;99.90
8475;DHT22;4274;52.012;8.448;2022-12-29T05:33:46;10.20;99.90
8475;DHT22;4274;52.012;8.448;2022-12-29T05:36:12;10.20;99.90
8475;DHT22;4274;52.012;8.448;2022-12-29T05:38:38;10.20;99.90
8475;DHT22;4274;52.012;8.448;2022-12-29T05:41:03;10.20;99.90
8475;DHT22;4274;52.012;8.448;2022-12-29T05:43:29;10.20;99.90
8475;DHT22;4274;52.012;8.448;2022-12-29T05:45:55;10.20;99.90
8475;DHT22;4274;52.012;8.448;2022-12-29T05:48:21;10.30;99.90
8475;DHT22;4274;52.012;8.448;2022-12-29T05:50:48;10.40;99.90
8475;DHT22;4274;52.012;8.448;2022-12-29T05:53:14;10.40;99.90
8475;DHT22;4274;52.012;8.448;2022-12-29T05:55:39;10.40;99.90
8475;DHT22;4274;52.012;8.448;2022-12-29T05:58:05;10.40;99.90
8475;DHT22;4274;52.012;8.448;2022-12-29T06:00:30;10.40;99.90
8475;DHT22;4274;52.012;8.448;2022-12-29T06:02:56;10.40;99.90
8475;DHT22;4274;52.012;8.448;2022-12-29T06:05:22;10.40;99.90
8475;DHT22;4274;52.012;8.448;2022-12-29T06:07:47;10.50;99.90
8475;DHT22;4274;52.012;8.448;2022-12-29T06:10:13;10.50;99.90
8475;DHT22;4274;52.012;8.448;2022-12-29T06:12:39;10.50;99.90
8475;DHT22;4274;52.012;8.448;2022-12-29T06:15:05;10.50;99.90
8475;DHT22;4274;52.012;8.448;2022-12-29T06:17:30;10.50;99.90
8475;DHT22;4274;52.012;8.448;2022-12-29T06:19:56;10.50;99.90
8475;DHT22;4274;52.012;8.448;2022-12-29T06:22:21;10.50;99.90
8475;DHT22;4274;52.012;8.448;2022-12-29T06:24:47;10.50;99.90
8475;DHT22;4274;52.012;8.448;2022-12-29T06:27:12;10.20;99.90
8475;DHT22;4274;52.012;8.448;2022-12-29T06:29:39;9.90;99.90
8475;DHT22;4274;52.012;8.448;2022-12-29T06:32:07;9.70;99.90
8475;DHT22;4274;52.012;8.448;2022-12-29T06:34:32;9.50;99.90
8475;DHT22;4274;52.012;8.448;2022-12-29T06:36:58;9.30;99.90
8475;DHT22;4274;52.012;8.448;2022-12-29T06:39:24;9.20;99.90
8475;DHT22;4274;52.012;8.448;2022-12-29T06:41:52;9.10;99.90
8475;DHT22;4274;52.012;8.448;2022-12-29T06:44:19;9.10;99.90
8475;DHT22;4274;52.012;8.448;2022-12-29T06:46:45;9.00;99.90
8475;DHT22;4274;52.012;8.448;2022-12-29T06:49:10;8.90;99.90
8475;DHT22;4274;52.012;8.448;2022-12-29T06:51:36;8.90;99.90
8475;DHT22;4274;52.012;8.448;2022-12-29T06:54:01;8.80;99.90
8475;DHT22;4274;52.012;8.448;2022-12-29T06:56:27;8.80;99.90
8475;DHT22;4274;52.012;8.448;2022-12-29T06:58:52;8.70;99.90
8475;DHT22;4274;52.012;8.448;2022-12-29T07:01:18;8.70;99.90
8475;DHT22;4274;52.012;8.448;2022-12-29T07:03:44;8.70;99.90
8475;DHT22;4274;52.012;8.448;2022-12-29T07:06:09;8.60;99.90
8475;DHT22;4274;52.012;8.448;2022-12-29T07:08:35;8.60;99.90
8475;DHT22;4274;52.012;8.448;2022-12-29T07:11:00;8.50;99.90
8475;DHT22;4274;52.012;8.448;2022-12-29T07:13:26;8.50;99.90
8475;DHT22;4274;52.012;8.448;2022-12-29T07:15:51;8.50;99.90
8475;DHT22;4274;52.012;8.448;2022-12-29T07:18:17;8.50;99.90
8475;DHT22;4274;52.012;8.448;2022-12-29T07:20:43;8.50;99.90
8475;DHT22;4274;52.012;8.448;2022-12-29T07:23:08;8.60;99.90
8475;DHT22;4274;52.012;8.448;2022-12-29T07:25:34;8.60;99.90
8475;DHT22;4274;52.012;8.448;2022-12-29T07:28:01;8.70;99.90
8475;DHT22;4274;52.012;8.448;2022-12-29T07:30:27;8.80;99.90
8475;DHT22;4274;52.012;8.448;2022-12-29T07:32:53;8.90;99.90
8475;DHT22;4274;52.012;8.448;2022-12-29T07:35:18;9.00;99.90
8475;DHT22;4274;52.012;8.448;2022-12-29T07:37:44;9.00;99.90
8475;DHT22;4274;52.012;8.448;2022-12-29T07:40:10;9.00;99.90
8475;DHT22;4274;52.012;8.448;2022-12-29T07:42:36;9.10;99.90
8475;DHT22;4274;52.012;8.448;2022-12-29T07:45:01;9.20;99.90
8475;DHT22;4274;52.012;8.448;2022-12-29T07:47:27;9.20;99.90
8475;DHT22;4274;52.012;8.448;2022-12-29T07:49:53;9.20;99.90
8475;DHT22;4274;52.012;8.448;2022-12-29T07:52:18;9.30;99.90
8475;DHT22;4274;52.012;8.448;2022-12-29T07:54:44;9.30;99.90
8475;DHT22;4274;52.012;8.448;2022-12-29T07:57:09;9.30;99.90
8475;DHT22;4274;52.012;8.448;2022-12-29T07:59:35;9.30;99.90
8475;DHT22;4274;52.012;8.448;2022-12-29T08:02:00;9.30;99.90
8475;DHT22;4274;52.012;8.448;2022-12-29T08:04:26;9.40;99.90
8475;DHT22;4274;52.012;8.448;2022-12-29T08:06:52;9.40;99.90
8475;DHT22;4274;52.012;8.448;2022-12-29T08:09:17;9.30;99.90
8475;DHT22;4274;52.012;8.448;2022-12-29T08:11:43;9.30;99.90
8475;DHT22;4274;52.012;8.448;2022-12-29T08:14:09;9.30;99.90
8475;DHT22;4274;52.012;8.448;2022-12-29T08:16:34;9.30;99.90
8475;DHT22;4274;52.012;8.448;2022-12-29T08:19:00;9.30;99.90
8475;DHT22;4274;52.012;8.448;2022-12-29T08:21:29;9.30;99.90
8475;DHT22;4274;52.012;8.448;2022-12-29T08:23:55;9.30;99.90
8475;DHT22;4274;52.012;8.448;2022-12-29T08:26:21;9.30;99.90
8475;DHT22;4274;52.012;8.448;2022-12-29T08:28:47;9.40;99.90
8475;DHT22;4274;52.012;8.448;2022-12-29T08:31:12;9.50;99.90
8475;DHT22;4274;52.012;8.448;2022-12-29T08:33:38;9.50;99.90
8475;DHT22;4274;52.012;8.448;2022-12-29T08:36:05;9.60;99.90
8475;DHT22;4274;52.012;8.448;2022-12-29T08:38:32;9.60;99.90
8475;DHT22;4274;52.012;8.448;2022-12-29T08:40:58;9.70;99.90
8475;DHT22;4274;52.012;8.448;2022-12-29T08:43:27;9.70;99.90
8475;DHT22;4274;52.012;8.448;2022-12-29T08:45:52;9.70;99.90
8475;DHT22;4274;52.012;8.448;2022-12-29T08:48:18;9.70;99.90
8475;DHT22;4274;52.012;8.448;2022-12-29T08:50:46;9.70;99.90
8475;DHT22;4274;52.012;8.448;2022-12-29T08:53:12;9.70;99.90
8475;DHT22;4274;52.012;8.448;2022-12-29T08:55:37;9.70;99.90
8475;DHT22;4274;52.012;8.448;2022-12-29T08:58:03;9.70;99.90
8475;DHT22;4274;52.012;8.448;2022-12-29T09:00:29;9.60;99.90
8475;DHT22;4274;52.012;8.448;2022-12-29T09:02:54;9.60;99.90
8475;DHT22;4274;52.012;8.448;2022-12-29T09:05:20;9.60;99.90
8475;DHT22;4274;52.012;8.448;2022-12-29T09:07:45;9.60;99.90
8475;DHT22;4274;52.012;8.448;2022-12-29T09:10:11;9.60;99.90
8475;DHT22;4274;52.012;8.448;2022-12-29T09:12:37;9.50;99.90
8475;DHT22;4274;52.012;8.448;2022-12-29T09:15:03;9.40;99.90
8475;DHT22;4274;52.012;8.448;2022-12-29T09:17:29;9.70;99.90
8475;DHT22;4274;52.012;8.448;2022-12-29T09:20:19;10.00;99.90
8475;DHT22;4274;52.012;8.448;2022-12-29T09:22:46;10.30;99.90
8475;DHT22;4274;52.012;8.448;2022-12-29T09:25:12;10.50;99.90
8475;DHT22;4274;52.012;8.448;2022-12-29T09:27:38;10.60;99.90
8475;DHT22;4274;52.012;8.448;2022-12-29T09:30:05;10.60;99.90
8475;DHT22;4274;52.012;8.448;2022-12-29T09:32:32;10.60;99.90
8475;DHT22;4274;52.012;8.448;2022-12-29T09:34:57;10.50;99.90
8475;DHT22;4274;52.012;8.448;2022-12-29T09:37:23;10.50;99.90
8475;DHT22;4274;52.012;8.448;2022-12-29T09:39:48;10.70;99.90
8475;DHT22;4274;52.012;8.448;2022-12-29T09:42:31;10.90;99.90
8475;DHT22;4274;52.012;8.448;2022-12-29T09:45:15;10.90;99.90
8475;DHT22;4274;52.012;8.448;2022-12-29T09:47:43;10.70;99.90
8475;DHT22;4274;52.012;8.448;2022-12-29T09:50:12;10.50;99.90
8475;DHT22;4274;52.012;8.448;2022-12-29T09:52:55;10.40;99.90
8475;DHT22;4274;52.012;8.448;2022-12-29T09:55:35;10.30;99.90
8475;DHT22;4274;52.012;8.448;2022-12-29T09:58:17;10.20;99.90
8475;DHT22;4274;52.012;8.448;2022-12-29T10:01:05;10.20;99.90
8475;DHT22;4274;52.012;8.448;2022-12-29T10:04:01;10.20;99.90
8475;DHT22;4274;52.012;8.448;2022-12-29T10:15:18;10.30;99.90
8475;DHT22;4274;52.012;8.448;2022-12-29T10:21:01;10.60;99.90
8475;DHT22;4274;52.012;8.448;2022-12-29T10:23:38;11.00;99.90
8475;DHT22;4274;52.012;8.448;2022-12-29T10:26:12;11.30;99.90
8475;DHT22;4274;52.012;8.448;2022-12-29T10:31:34;11.80;99.90
8475;DHT22;4274;52.012;8.448;2022-12-29T10:34:02;12.10;99.90
8475;DHT22;4274;52.012;8.448;2022-12-29T10:36:58;12.30;99.90
8475;DHT22;4274;52.012;8.448;2022-12-29T10:39:52;12.30;99.90
8475;DHT22;4274;52.012;8.448;2022-12-29T10:44:44;11.60;99.90
8475;DHT22;4274;52.012;8.448;2022-12-29T10:47:19;11.40;99.90
8475;DHT22;4274;52.012;8.448;2022-12-29T10:49:47;11.30;99.90
8475;DHT22;4274;52.012;8.448;2022-12-29T10:52:15;11.20;99.90
8475;DHT22;4274;52.012;8.448;2022-12-29T10:54:52;11.00;99.90
8475;DHT22;4274;52.012;8.448;2022-12-29T10:57:38;10.90;99.90
8475;DHT22;4274;52.012;8.448;2022-12-29T11:00:12;10.90;99.90
8475;DHT22;4274;52.012;8.448;2022-12-29T11:02:43;10.80;99.90
8475;DHT22;4274;52.012;8.448;2022-12-29T11:05:36;10.70;99.90
8475;DHT22;4274;52.012;8.448;2022-12-29T11:08:08;10.80;99.90
8475;DHT22;4274;52.012;8.448;2022-12-29T11:10:39;10.70;99.90
8475;DHT22;4274;52.012;8.448;2022-12-29T11:13:30;10.70;99.90
8475;DHT22;4274;52.012;8.448;2022-12-29T11:15:56;10.60;99.90
8475;DHT22;4274;52.012;8.448;2022-12-29T11:18:30;10.60;99.90
8475;DHT22;4274;52.012;8.448;2022-12-29T11:20:58;10.50;99.90
8475;DHT22;4274;52.012;8.448;2022-12-29T11:23:30;10.50;99.90
8475;DHT22;4274;52.012;8.448;2022-12-29T11:26:13;10.40;99.90
8475;DHT22;4274;52.012;8.448;2022-12-29T11:28:42;10.40;99.90
8475;DHT22;4274;52.012;8.448;2022-12-29T11:31:08;10.40;99.90
8475;DHT22;4274;52.012;8.448;2022-12-29T11:33:38;10.40;99.90
8475;DHT22;4274;52.012;8.448;2022-12-29T11:36:11;10.40;99.90
8475;DHT22;4274;52.012;8.448;2022-12-29T11:38:57;10.40;99.90
8475;DHT22;4274;52.012;8.448;2022-12-29T11:41:27;10.40;99.90
8475;DHT22;4274;52.012;8.448;2022-12-29T11:43:55;10.40;99.90
8475;DHT22;4274;52.012;8.448;2022-12-29T11:46:31;10.40;99.90
8475;DHT22;4274;52.012;8.448;2022-12-29T11:48:59;10.40;99.90
8475;DHT22;4274;52.012;8.448;2022-12-29T11:51:45;10.40;99.90
8475;DHT22;4274;52.012;8.448;2022-12-29T11:54:23;10.40;99.90
8475;DHT22;4274;52.012;8.448;2022-12-29T11:56:50;10.40;99.90
8475;DHT22;4274;52.012;8.448;2022-12-29T12:05:21;10.50;99.90
8475;DHT22;4274;52.012;8.448;2022-12-29T12:08:07;10.50;99.90
8475;DHT22;4274;52.012;8.448;2022-12-29T12:11:05;10.50;99.90
8475;DHT22;4274;52.012;8.448;2022-12-29T12:14:10;10.50;99.90
8475;DHT22;4274;52.012;8.448;2022-12-29T12:16:40;10.50;99.90
8475;DHT22;4274;52.012;8.448;2022-12-29T12:19:32;10.50;99.90
8475;DHT22;4274;52.012;8.448;2022-12-29T12:22:24;10.50;99.90
8475;DHT22;4274;52.012;8.448;2022-12-29T12:27:28;10.50;99.90
8475;DHT22;4274;52.012;8.448;2022-12-29T12:41:13;10.50;99.90
8475;DHT22;4274;52.012;8.448;2022-12-29T12:43:46;10.50;99.90
8475;DHT22;4274;52.012;8.448;2022-12-29T12:47:21;10.50;99.90
8475;DHT22;4274;52.012;8.448;2022-12-29T13:01:20;10.40;99.90
8475;DHT22;4274;52.012;8.448;2022-12-29T13:06:37;10.40;99.90
8475;DHT22;4274;52.012;8.448;2022-12-29T13:28:35;10.40;99.90
8475;DHT22;4274;52.012;8.448;2022-12-29T13:31:20;10.40;99.90
8475;DHT22;4274;52.012;8.448;2022-12-29T13:36:34;10.40;99.90
8475;DHT22;4274;52.012;8.448;2022-12-29T13:41:37;10.30;99.90
8475;DHT22;4274;52.012;8.448;2022-12-29T13:44:05;10.20;99.90
8475;DHT22;4274;52.012;8.448;2022-12-29T13:46:37;10.10;99.90
8475;DHT22;4274;52.012;8.448;2022-12-29T13:49:11;10.00;99.90
8475;DHT22;4274;52.012;8.448;2022-12-29T13:51:44;10.00;99.90
8475;DHT22;4274;52.012;8.448;2022-12-29T13:54:15;10.00;99.90
8475;DHT22;4274;52.012;8.448;2022-12-29T13:57:03;10.00;99.90
8475;DHT22;4274;52.012;8.448;2022-12-29T13:59:44;10.00;99.90
8475;DHT22;4274;52.012;8.448;2022-12-29T14:02:36;10.00;99.90
8475;DHT22;4274;52.012;8.448;2022-12-29T14:05:05;10.00;99.90
8475;DHT22;4274;52.012;8.448;2022-12-29T14:08:03;10.00;99.90
8475;DHT22;4274;52.012;8.448;2022-12-29T14:10:37;10.00;99.90
8475;DHT22;4274;52.012;8.448;2022-12-29T14:13:18;10.00;99.90
8475;DHT22;4274;52.012;8.448;2022-12-29T14:15:55;10.00;99.90
8475;DHT22;4274;52.012;8.448;2022-12-29T14:18:31;10.00;99.90
8475;DHT22;4274;52.012;8.448;2022-12-29T14:21:04;10.00;99.90
8475;DHT22;4274;52.012;8.448;2022-12-29T14:23:41;10.00;99.90
8475;DHT22;4274;52.012;8.448;2022-12-29T14:28:41;10.00;99.90
8475;DHT22;4274;52.012;8.448;2022-12-29T14:39:42;9.80;99.90
8475;DHT22;4274;52.012;8.448;2022-12-29T14:44:47;9.70;99.90
8475;DHT22;4274;52.012;8.448;2022-12-29T14:47:25;9.70;99.90
8475;DHT22;4274;52.012;8.448;2022-12-29T14:49:53;9.60;99.90
8475;DHT22;4274;52.012;8.448;2022-12-29T14:52:22;9.60;99.90
8475;DHT22;4274;52.012;8.448;2022-12-29T14:54:57;9.60;99.90
8475;DHT22;4274;52.012;8.448;2022-12-29T14:57:52;9.60;99.90
8475;DHT22;4274;52.012;8.448;2022-12-29T15:00:30;9.60;99.90
8475;DHT22;4274;52.012;8.448;2022-12-29T15:03:12;9.60;99.90
8475;DHT22;4274;52.012;8.448;2022-12-29T15:05:45;9.60;99.90
8475;DHT22;4274;52.012;8.448;2022-12-29T15:08:13;9.50;99.90
8475;DHT22;4274;52.012;8.448;2022-12-29T15:10:45;9.50;99.90
8475;DHT22;4274;52.012;8.448;2022-12-29T15:13:22;9.60;99.90
8475;DHT22;4274;52.012;8.448;2022-12-29T15:15:48;9.60;99.90
8475;DHT22;4274;52.012;8.448;2022-12-29T15:18:25;9.60;99.90
8475;DHT22;4274;52.012;8.448;2022-12-29T15:21:00;9.60;99.90
8475;DHT22;4274;52.012;8.448;2022-12-29T15:23:26;9.60;99.90
8475;DHT22;4274;52.012;8.448;2022-12-29T15:25:58;9.60;99.90
8475;DHT22;4274;52.012;8.448;2022-12-29T15:28:25;9.60;99.90
8475;DHT22;4274;52.012;8.448;2022-12-29T15:30:57;9.70;99.90
8475;DHT22;4274;52.012;8.448;2022-12-29T15:33:27;9.70;99.90
8475;DHT22;4274;52.012;8.448;2022-12-29T15:35:54;9.70;99.90
8475;DHT22;4274;52.012;8.448;2022-12-29T15:38:26;9.70;99.90
8475;DHT22;4274;52.012;8.448;2022-12-29T15:40:59;9.70;99.90
8475;DHT22;4274;52.012;8.448;2022-12-29T15:43:41;9.70;99.90
8475;DHT22;4274;52.012;8.448;2022-12-29T15:46:07;9.70;99.90
8475;DHT22;4274;52.012;8.448;2022-12-29T15:48:35;9.60;99.90
8475;DHT22;4274;52.012;8.448;2022-12-29T15:51:03;9.70;99.90
8475;DHT22;4274;52.012;8.448;2022-12-29T15:53:31;9.60;99.90
8475;DHT22;4274;52.012;8.448;2022-12-29T15:56:06;9.60;99.90
8475;DHT22;4274;52.012;8.448;2022-12-29T15:58:41;9.60;99.90
8475;DHT22;4274;52.012;8.448;2022-12-29T16:03:42;9.60;99.90
8475;DHT22;4274;52.012;8.448;2022-12-29T16:06:23;9.50;99.90
8475;DHT22;4274;52.012;8.448;2022-12-29T16:09:19;9.50;99.90
8475;DHT22;4274;52.012;8.448;2022-12-29T16:11:55;9.50;99.90
8475;DHT22;4274;52.012;8.448;2022-12-29T16:14:42;9.50;99.90
8475;DHT22;4274;52.012;8.448;2022-12-29T16:17:13;9.50;99.90
8475;DHT22;4274;52.012;8.448;2022-12-29T16:19:42;9.50;99.90
8475;DHT22;4274;52.012;8.448;2022-12-29T16:22:35;9.50;99.90
8475;DHT22;4274;52.012;8.448;2022-12-29T16:25:04;9.50;99.90
8475;DHT22;4274;52.012;8.448;2022-12-29T16:27:37;9.40;99.90
8475;DHT22;4274;52.012;8.448;2022-12-29T16:30:16;9.40;99.90
8475;DHT22;4274;52.012;8.448;2022-12-29T16:32:46;9.40;99.90
8475;DHT22;4274;52.012;8.448;2022-12-29T16:35:18;9.40;99.90
8475;DHT22;4274;52.012;8.448;2022-12-29T16:37:44;9.40;99.90
8475;DHT22;4274;52.012;8.448;2022-12-29T16:40:29;9.30;99.90
8475;DHT22;4274;52.012;8.448;2022-12-29T16:42:57;9.30;99.90
8475;DHT22;4274;52.012;8.448;2022-12-29T16:50:37;9.30;99.90
8475;DHT22;4274;52.012;8.448;2022-12-29T16:53:04;9.30;99.90
8475;DHT22;4274;52.012;8.448;2022-12-29T16:55:30;9.30;99.90
8475;DHT22;4274;52.012;8.448;2022-12-29T16:57:57;9.30;99.90
8475;DHT22;4274;52.012;8.448;2022-12-29T17:00:26;9.40;99.90
8475;DHT22;4274;52.012;8.448;2022-12-29T17:02:56;9.40;99.90
8475;DHT22;4274;52.012;8.448;2022-12-29T17:05:22;9.30;99.90
8475;DHT22;4274;52.012;8.448;2022-12-29T17:07:48;9.30;99.90
8475;DHT22;4274;52.012;8.448;2022-12-29T17:10:14;9.40;99.90
8475;DHT22;4274;52.012;8.448;2022-12-29T17:12:42;9.40;99.90
8475;DHT22;4274;52.012;8.448;2022-12-29T17:15:24;9.40;99.90
8475;DHT22;4274;52.012;8.448;2022-12-29T17:17:51;9.40;99.90
8475;DHT22;4274;52.012;8.448;2022-12-29T17:22:45;9.30;99.90
8475;DHT22;4274;52.012;8.448;2022-12-29T17:25:13;9.20;99.90
8475;DHT22;4274;52.012;8.448;2022-12-29T17:30:19;8.80;99.90
8475;DHT22;4274;52.012;8.448;2022-12-29T17:32:57;8.60;99.90
8475;DHT22;4274;52.012;8.448;2022-12-29T17:35:24;8.40;99.90
8475;DHT22;4274;52.012;8.448;2022-12-29T17:37:50;8.30;99.90
8475;DHT22;4274;52.012;8.448;2022-12-29T17:40:18;8.20;99.90
8475;DHT22;4274;52.012;8.448;2022-12-29T17:42:50;8.20;99.90
8475;DHT22;4274;52.012;8.448;2022-12-29T17:45:22;8.10;99.90
8475;DHT22;4274;52.012;8.448;2022-12-29T17:47:48;8.20;99.90
8475;DHT22;4274;52.012;8.448;2022-12-29T17:50:17;8.10;99.90
8475;DHT22;4274;52.012;8.448;2022-12-29T17:52:47;8.20;99.90
8475;DHT22;4274;52.012;8.448;2022-12-29T17:55:17;8.10;99.90
8475;DHT22;4274;52.012;8.448;2022-12-29T17:57:44;8.20;99.90
8475;DHT22;4274;52.012;8.448;2022-12-29T18:00:18;8.20;99.90
8475;DHT22;4274;52.012;8.448;2022-12-29T18:02:44;8.20;99.90
8475;DHT22;4274;52.012;8.448;2022-12-29T18:05:30;8.20;99.90
8475;DHT22;4274;52.012;8.448;2022-12-29T18:07:58;8.30;99.90
8475;DHT22;4274;52.012;8.448;2022-12-29T18:10:26;8.30;99.90
8475;DHT22;4274;52.012;8.448;2022-12-29T18:12:54;8.40;99.90
8475;DHT22;4274;52.012;8.448;2022-12-29T18:15:30;8.50;99.90
8475;DHT22;4274;52.012;8.448;2022-12-29T18:18:19;8.50;99.90
8475;DHT22;4274;52.012;8.448;2022-12-29T18:20:47;8.50;99.90
8475;DHT22;4274;52.012;8.448;2022-12-29T18:23:19;8.50;99.90
8475;DHT22;4274;52.012;8.448;2022-12-29T18:25:56;8.50;99.90
8475;DHT22;4274;52.012;8.448;2022-12-29T18:28:23;8.40;99.90
8475;DHT22;4274;52.012;8.448;2022-12-29T18:30:50;8.40;99.90
8475;DHT22;4274;52.012;8.448;2022-12-29T18:33:17;8.30;99.90
8475;DHT22;4274;52.012;8.448;2022-12-29T18:35:55;8.30;99.90
8475;DHT22;4274;52.012;8.448;2022-12-29T18:38:21;8.30;99.90
8475;DHT22;4274;52.012;8.448;2022-12-29T18:40:48;8.20;99.90
8475;DHT22;4274;52.012;8.448;2022-12-29T18:43:14;8.10;99.90
8475;DHT22;4274;52.012;8.448;2022-12-29T18:45:40;8.10;99.90
8475;DHT22;4274;52.012;8.448;2022-12-29T18:48:07;8.00;99.90
8475;DHT22;4274;52.012;8.448;2022-12-29T18:50:32;8.00;99.90
8475;DHT22;4274;52.012;8.448;2022-12-29T18:52:58;8.00;99.90